Latest Weather Observations for Frederick Reef

IDQ60801

Issued at 11:32 am EST Monday 27 April 2015 (issued every 30 minutes, with the page automatically refreshed every 10 minutes)

About weather observations | Map of weather stations | Latest weather observations for QLD | Other Formats
Station Details ID: 200701 Name: FREDERICK REEF Lat: -20.94 Lon: 154.40 Height: 4.9 m
Data from the previous 72 hours. | See also: Recent months for locations in Queensland
Date/Time
EST
Temp
°C
App
Temp
°C
Dew
Point
Rel
Hum
%
Delta-T
°C
Wind Press
QNH
hPa
Press
MSL
hPa
Rain
since 9 am
mm
Dir
 
Spd
km/h
Gust
km/h
Spd
kts
Gust
kts
27/11:30am 24.3 - - - - S 26 32 14 17 1014.9 - -
27/11:00am 24.3 - - - - S 24 28 13 15 1015.3 1015.1 -
27/10:30am 24.2 - - - - S 22 28 12 15 1015.7 - -
27/10:00am 24.2 - - - - S 26 32 14 17 1016.0 1015.8 -
27/09:30am 24.1 - - - - S 28 33 15 18 1016.1 - -
27/09:00am 24.2 - - - - S 26 32 14 17 1016.3 1016.3 -
27/08:30am 24.0 - - - - S 28 35 15 19 1016.0 - -
27/08:00am 24.3 - - - - S 26 30 14 16 1015.7 1015.6 -
27/07:30am 24.1 - - - - SSE 26 30 14 16 1015.3 - -
27/07:00am 24.2 - - - - S 28 35 15 19 1014.9 1014.9 -
27/06:30am 24.1 - - - - S 26 30 14 16 1014.5 - -
27/06:00am 24.0 - - - - S 28 33 15 18 1014.1 1014.1 -
27/05:30am 24.2 - - - - S 30 35 16 19 1013.8 - -
27/05:00am 23.9 - - - - S 30 37 16 20 1013.5 - -
27/04:30am 24.0 - - - - S 32 37 17 20 1013.4 - -
27/04:00am 23.9 - - - - S 30 35 16 19 1013.3 - -
27/03:30am 24.0 - - - - S 32 37 17 20 1013.4 - -
27/03:00am 23.9 - - - - S 32 35 17 19 1013.4 1013.4 -
27/02:30am 23.9 - - - - S 32 37 17 20 1013.4 - -
27/02:00am 23.8 - - - - S 32 35 17 19 1013.7 - -
27/01:30am 24.2 - - - - S 32 41 17 22 1013.8 - -
27/01:00am 24.1 - - - - SSW 33 41 18 22 1013.9 - -
27/12:30am 24.1 - - - - S 33 39 18 21 1014.0 - -
27/12:00am 24.3 - - - - S 33 41 18 22 1014.3 1014.3 -
 
Date/Time
EST
Temp
°C
App
Temp
°C
Dew
Point
Rel
Hum
%
Delta-T
°C
Wind Press
QNH
hPa
Press
MSL
hPa
Rain
since 9 am
mm
Dir
 
Spd
km/h
Gust
km/h
Spd
kts
Gust
kts
26/11:30pm 24.5 - - - - S 35 39 19 21 1014.4 - -
26/11:00pm 24.9 - - - - S 33 37 18 20 1014.6 - -
26/10:30pm 24.7 - - - - S 32 35 17 19 1014.6 - -
26/10:00pm 25.0 - - - - S 32 37 17 20 1014.6 - -
26/09:30pm 24.8 - - - - S 32 37 17 20 1014.5 - -
26/09:00pm 24.9 - - - - S 32 37 17 20 1014.3 1014.3 -
26/08:30pm 25.2 - - - - S 30 33 16 18 1014.1 - -
26/08:00pm 25.2 - - - - S 32 35 17 19 1013.7 1013.7 -
26/07:30pm 25.4 - - - - S 32 35 17 19 1013.3 - -
26/07:00pm 25.4 - - - - S 30 33 16 18 1012.9 - -
26/06:30pm 25.4 - - - - S 32 33 17 18 1012.4 - -
26/06:00pm 25.6 - - - - S 30 33 16 18 1012.2 1012.2 -
26/05:30pm 25.6 - - - - S 30 33 16 18 1011.8 - -
26/05:00pm 25.6 - - - - S 30 32 16 17 1011.5 - -
26/04:30pm 25.8 - - - - S 33 35 18 19 1011.3 - -
26/04:00pm 25.8 - - - - S 33 37 18 20 1011.2 1011.0 -
26/03:30pm 25.8 - - - - SSW 33 41 18 22 1010.9 - -
26/03:00pm 26.1 - - - - SSW 30 33 16 18 1011.0 1010.9 -
26/02:30pm 26.0 - - - - SW 28 32 15 17 1011.0 - -
26/02:00pm 25.9 - - - - SW 28 30 15 16 1010.9 - -
26/01:30pm 25.4 - - - - SSW 26 30 14 16 1011.0 - -
26/01:00pm 25.5 - - - - SW 28 32 15 17 1011.1 1011.0 -
26/12:30pm 25.4 - - - - SW 24 26 13 14 1011.4 - -
26/12:00pm 25.3 - - - - SW 24 26 13 14 1011.6 1011.4 -
26/11:00am 25.1 - - - - SW 24 28 13 15 1012.3 1012.2 -
26/10:30am 25.0 - - - - SW 22 26 12 14 1012.7 - -
26/10:00am 24.9 - - - - SW 20 24 11 13 1012.9 - -
26/09:30am 24.8 - - - - SW 19 20 10 11 1012.9 - -
26/09:00am 24.8 - - - - SW 20 22 11 12 1013.0 1012.8 -
26/08:30am 24.8 - - - - SW 19 22 10 12 1012.9 - -
26/08:00am 24.7 - - - - SW 17 20 9 11 1012.7 1012.7 -
26/07:30am 24.4 - - - - SW 11 15 6 8 1012.6 - -
26/07:00am 24.3 - - - - SW 9 15 5 8 1012.2 1012.2 -
26/06:30am 24.3 - - - - SSW 11 13 6 7 1011.8 - -
26/06:00am 24.1 - - - - SSW 9 15 5 8 1011.2 1011.2 -
26/05:30am 24.2 - - - - SSW 13 17 7 9 1010.9 - -
26/05:00am 24.0 - - - - SSW 15 17 8 9 1010.6 - -
26/04:30am 24.1 - - - - SSW 17 20 9 11 1010.4 - -
26/04:00am 24.1 - - - - SSW 13 17 7 9 1010.1 - -
26/03:30am 24.1 - - - - SSW 15 17 8 9 1010.2 - -
26/03:00am 24.1 - - - - SSW 17 20 9 11 1010.4 - -
26/02:30am 24.2 - - - - SW 17 20 9 11 1010.1 - -
26/02:00am 24.3 - - - - SW 15 19 8 10 1010.4 - -
26/01:30am 24.3 - - - - SW 13 17 7 9 1010.7 - -
26/01:00am 24.3 - - - - SW 13 17 7 9 1011.1 - -
26/12:30am 24.3 - - - - SSW 13 15 7 8 1011.3 - -
26/12:00am 24.5 - - - - SSW 11 15 6 8 1011.4 - -
 
Date/Time
EST
Temp
°C
App
Temp
°C
Dew
Point
Rel
Hum
%
Delta-T
°C
Wind Press
QNH
hPa
Press
MSL
hPa
Rain
since 9 am
mm
Dir
 
Spd
km/h
Gust
km/h
Spd
kts
Gust
kts
25/11:30pm 24.4 - - - - SSW 15 19 8 10 1011.5 - -
25/11:00pm 24.6 - - - - S 13 15 7 8 1011.6 - -
25/10:30pm 24.6 - - - - S 15 17 8 9 1011.7 - -
25/10:00pm 24.7 - - - - S 13 17 7 9 1011.9 - -
25/09:30pm 24.8 - - - - S 15 19 8 10 1011.9 - -
25/09:00pm 24.8 - - - - S 15 19 8 10 1011.8 - -
25/08:30pm 24.7 - - - - S 15 19 8 10 1011.8 - -
25/08:00pm 24.9 - - - - S 17 20 9 11 1011.5 - -
25/07:30pm 24.7 - - - - S 19 20 10 11 1011.2 - -
25/07:00pm 24.7 - - - - S 17 20 9 11 1010.9 - -
25/06:30pm 24.6 - - - - S 19 22 10 12 1010.5 - -
25/06:00pm 24.6 - - - - S 19 20 10 11 1010.1 - -
25/05:30pm 24.6 - - - - S 19 20 10 11 1009.8 - -
25/05:00pm 24.8 - - - - S 20 24 11 13 1009.6 - -
25/04:30pm 24.7 - - - - S 19 22 10 12 1009.3 - -
25/04:00pm 24.6 - - - - S 19 22 10 12 1009.1 1009.0 -
25/03:30pm 24.7 - - - - S 20 24 11 13 1008.8 - -
25/03:00pm 24.8 - - - - S 19 24 10 13 1008.8 1008.7 -
25/02:30pm 24.6 - - - - S 20 24 11 13 1008.8 - -
25/02:00pm 24.5 - - - - S 19 24 10 13 1008.8 1008.7 -
25/01:30pm 24.5 - - - - S 19 24 10 13 1009.1 - -
25/01:00pm 24.5 - - - - S 17 22 9 12 1009.4 1009.3 -
25/12:30pm 24.5 - - - - S 17 20 9 11 1009.7 - -
25/12:00pm 24.8 - - - - S 19 22 10 12 1009.9 - -
25/11:30am 24.5 - - - - S 17 22 9 12 1010.0 - -
25/11:00am 24.7 - - - - SSW 17 20 9 11 1010.3 1010.2 -
25/10:30am 24.6 - - - - S 13 17 7 9 1010.9 - -
25/10:00am 24.6 - - - - S 15 17 8 9 1011.1 - -
25/09:30am 24.4 - - - - S 17 20 9 11 1011.2 - -
25/09:00am 24.5 - - - - SSW 17 20 9 11 1011.3 1011.2 -
25/08:30am 24.3 - - - - SSW 19 22 10 12 1011.1 - -
25/08:00am 24.4 - - - - SSW 19 20 10 11 1010.8 1010.8 -
25/07:30am 24.6 - - - - SSW 15 17 8 9 1010.5 - -
25/07:00am 24.5 - - - - SSW 15 19 8 10 1010.4 1010.3 -
25/06:30am 24.7 - - - - SSW 13 17 7 9 1010.3 - -
25/06:00am 24.5 - - - - SW 13 17 7 9 1010.0 - -
25/05:30am 24.6 - - - - SSW 15 17 8 9 1009.7 - -
25/05:00am 24.5 - - - - SSW 11 15 6 8 1009.6 - -
25/04:30am 24.4 - - - - SSW 13 17 7 9 1009.4 - -
25/04:00am 24.6 - - - - SSW 15 17 8 9 1009.3 - -
25/03:30am 24.5 - - - - SSW 15 19 8 10 1009.2 - -
25/03:00am 24.7 - - - - S 15 19 8 10 1009.2 - -
25/02:30am 24.6 - - - - S 15 19 8 10 1009.2 - -
25/02:00am 24.6 - - - - S 17 20 9 11 1009.3 - -
25/01:30am 24.6 - - - - S 19 20 10 11 1009.5 - -
25/01:00am 24.7 - - - - S 19 20 10 11 1009.5 - -
25/12:30am 24.8 - - - - S 19 22 10 12 1009.7 - -
25/12:00am 24.7 - - - - S 17 20 9 11 1009.8 - -
 
Date/Time
EST
Temp
°C
App
Temp
°C
Dew
Point
Rel
Hum
%
Delta-T
°C
Wind Press
QNH
hPa
Press
MSL
hPa
Rain
since 9 am
mm
Dir
 
Spd
km/h
Gust
km/h
Spd
kts
Gust
kts
24/11:30pm 24.8 - - - - S 19 20 10 11 1009.9 - -
24/11:00pm 25.0 - - - - S 19 20 10 11 1010.0 - -
24/10:30pm 24.8 - - - - S 19 20 10 11 1010.1 - -
24/10:00pm 25.2 - - - - SSE 19 20 10 11 1010.3 - -
24/09:30pm 25.0 - - - - S 20 22 11 12 1010.4 - -
24/09:00pm 25.0 - - - - SSE 22 24 12 13 1010.2 - -
24/08:30pm 25.0 - - - - S 24 28 13 15 1010.3 - -
24/08:00pm 24.9 - - - - S 26 28 14 15 1010.1 - -
24/07:30pm 25.2 - - - - S 26 30 14 16 1010.0 - -
24/07:00pm 25.1 - - - - S 26 28 14 15 1009.6 - -
24/06:30pm 25.2 - - - - S 24 28 13 15 1009.4 - -
24/06:00pm 25.1 - - - - S 24 28 13 15 1009.0 - -
24/05:30pm 25.1 - - - - S 24 28 13 15 1008.7 - -
24/05:00pm 25.1 - - - - S 24 26 13 14 1008.5 1008.4 -
24/04:30pm 25.1 - - - - S 24 28 13 15 1008.1 - -
24/04:00pm 25.0 - - - - S 24 28 13 15 1008.0 1008.0 -
24/03:30pm 25.1 - - - - S 28 32 15 17 1007.9 - -
24/03:00pm 25.1 - - - - S 26 30 14 16 1008.0 1007.9 -
24/02:30pm 25.3 - - - - S 24 28 13 15 1008.0 - -
24/02:00pm 25.1 - - - - S 26 30 14 16 1008.1 1008.0 -
24/01:30pm 25.1 - - - - S 24 30 13 16 1008.1 - -
24/01:00pm 24.9 - - - - S 24 28 13 15 1008.5 1008.4 -
24/12:30pm 25.1 - - - - S 26 30 14 16 1008.6 - -
24/12:00pm 25.2 - - - - S 26 30 14 16 1008.8 1008.6 -

Other Formats:

Comma delimited format used in spreadsheet applications
http://www.bom.gov.au/fwo/IDQ60801/IDQ60801.94393.axf

JavaScript Object Notation format (JSON) in row-major order
http://www.bom.gov.au/fwo/IDQ60801/IDQ60801.94393.json